Dyer, Tennessee
Current Conditions -  °F | °C
As of 5:35 PM on Saturday 22 Nov 2014 (Local Time) from KUCY Reporting Station
Overcast Overcast  
Wind Chill: 57°   Ceiling: 5500
Heat Index: 57°   Visibility: 10mi
Dew Point: 37°   Wind: 10mph
Humidity: 48%   Direction: 160°SSE
Pressure: 30.05"   Gusts: NA
Location:  36.07°N, 88.99°W
Report Text: KUCY 222335Z AUTO 16009KT 10SM OVC055 14/03 A3005 RMK
Loading
Personal Weather Stations






























Interactive Weather Map New forecast layout! Learn more

10-Day Weather Forecast

Advertisements
Track Severe Weather on mobile